createdAt,value
2016-04-30T00:00:31.116Z,1009.3
2016-04-30T00:01:31.103Z,1009.37
2016-04-30T00:02:31.074Z,1009.39
2016-04-30T00:03:31.060Z,1009.41
2016-04-30T00:04:31.049Z,1009.38
2016-04-30T00:05:31.020Z,1009.43
2016-04-30T00:06:31.007Z,1009.4
2016-04-30T00:07:30.979Z,1009.39
2016-04-30T00:08:30.965Z,1009.38
2016-04-30T00:09:30.952Z,1009.34
2016-04-30T00:10:30.924Z,1009.38
2016-04-30T00:11:30.911Z,1009.35
2016-04-30T00:12:30.898Z,1009.33
2016-04-30T00:13:30.870Z,1009.35
2016-04-30T00:14:30.857Z,1009.38
2016-04-30T00:15:30.843Z,1009.34
2016-04-30T00:16:30.831Z,1009.38
2016-04-30T00:17:30.802Z,1009.41
2016-04-30T00:18:31.320Z,1009.33
2016-04-30T00:19:30.761Z,1009.37
2016-04-30T00:20:30.748Z,1009.35
2016-04-30T00:21:30.734Z,1009.32
2016-04-30T00:22:30.706Z,1009.34
2016-04-30T00:23:30.694Z,1009.29
2016-04-30T00:24:30.664Z,1009.32
2016-04-30T00:25:30.653Z,1009.31
2016-04-30T00:26:30.639Z,1009.31
2016-04-30T00:27:30.626Z,1009.23
2016-04-30T00:28:30.613Z,1009.22
2016-04-30T00:29:30.585Z,1009.22
2016-04-30T00:30:30.555Z,1009.21
2016-04-30T00:31:30.544Z,1009.23
2016-04-30T00:32:30.530Z,1009.21
2016-04-30T00:33:30.502Z,1009.23
2016-04-30T00:34:30.488Z,1009.19
2016-04-30T00:35:30.476Z,1009.18
2016-04-30T00:36:30.447Z,1009.17
2016-04-30T00:37:30.435Z,1009.19
2016-04-30T00:38:30.421Z,1009.2
2016-04-30T00:39:30.392Z,1009.21
2016-04-30T00:40:30.379Z,1009.15
2016-04-30T00:41:30.367Z,1009.17
2016-04-30T00:42:30.338Z,1009.15
2016-04-30T00:43:30.326Z,1009.19
2016-04-30T00:44:30.296Z,1009.17
2016-04-30T00:45:30.284Z,1009.2
2016-04-30T00:46:30.271Z,1009.19
2016-04-30T00:47:30.242Z,1009.21
2016-04-30T00:48:30.229Z,1009.22
2016-04-30T00:49:30.201Z,1009.2
2016-04-30T00:50:30.187Z,1009.24
2016-04-30T00:51:30.175Z,1009.27
2016-04-30T00:52:30.162Z,1009.25
2016-04-30T00:53:30.134Z,1009.28
2016-04-30T00:54:30.120Z,1009.31
2016-04-30T00:55:30.108Z,1009.3
2016-04-30T00:56:30.078Z,1009.27
2016-04-30T00:57:30.066Z,1009.25
2016-04-30T00:58:30.038Z,1009.24
2016-04-30T00:59:30.025Z,1009.25
2016-04-30T01:00:30.011Z,1009.28
2016-04-30T01:01:29.983Z,1009.26
2016-04-30T01:02:29.969Z,1009.28
2016-04-30T01:03:29.958Z,1009.28
2016-04-30T01:04:29.929Z,1009.29
2016-04-30T01:05:29.915Z,1009.26
2016-04-30T01:06:29.903Z,1009.23
2016-04-30T01:07:29.874Z,1009.21
2016-04-30T01:08:29.861Z,1009.27
2016-04-30T01:09:29.832Z,1009.27
2016-04-30T01:10:29.820Z,1009.32
2016-04-30T01:11:29.807Z,1009.24
2016-04-30T01:12:29.794Z,1009.3
2016-04-30T01:13:29.765Z,1009.29
2016-04-30T01:14:29.752Z,1009.32
2016-04-30T01:15:29.740Z,1009.35
2016-04-30T01:16:29.711Z,1009.31
2016-04-30T01:17:29.698Z,1009.28
2016-04-30T01:18:29.670Z,1009.27
2016-04-30T01:19:29.656Z,1009.3
2016-04-30T01:20:29.643Z,1009.32
2016-04-30T01:21:29.615Z,1009.35
2016-04-30T01:22:29.602Z,1009.33
2016-04-30T01:23:29.589Z,1009.38
2016-04-30T01:24:29.561Z,1009.36
2016-04-30T01:25:29.547Z,1009.37
2016-04-30T01:26:29.534Z,1009.35
2016-04-30T01:27:29.522Z,1009.35
2016-04-30T01:28:29.493Z,1009.37
2016-04-30T01:29:29.464Z,1009.39
2016-04-30T01:30:29.451Z,1009.41
2016-04-30T01:31:29.438Z,1009.4
2016-04-30T01:32:29.426Z,1009.42
2016-04-30T01:33:29.397Z,1009.45
2016-04-30T01:34:29.385Z,1009.43
2016-04-30T01:35:29.371Z,1009.43
2016-04-30T01:36:29.343Z,1009.41
2016-04-30T01:37:29.330Z,1009.45
2016-04-30T01:38:29.301Z,1009.5
2016-04-30T01:39:29.288Z,1009.46
2016-04-30T01:40:29.276Z,1009.52
2016-04-30T01:41:29.262Z,1009.52
2016-04-30T01:42:29.234Z,1009.52
2016-04-30T01:43:29.221Z,1009.54
2016-04-30T01:44:29.208Z,1009.55
2016-04-30T01:45:29.180Z,1009.51
2016-04-30T01:46:29.151Z,1009.49
2016-04-30T01:47:29.137Z,1009.49
2016-04-30T01:48:29.562Z,1009.5
2016-04-30T01:49:29.096Z,1009.51
2016-04-30T01:50:29.083Z,1009.52
2016-04-30T01:51:29.071Z,1009.52
2016-04-30T01:52:29.042Z,1009.51
2016-04-30T01:53:29.029Z,1009.52
2016-04-30T01:54:29.016Z,1009.51
2016-04-30T01:55:28.987Z,1009.51
2016-04-30T01:56:28.975Z,1009.48
2016-04-30T01:57:28.961Z,1009.52
2016-04-30T01:58:28.933Z,1009.48
2016-04-30T01:59:28.920Z,1009.52
2016-04-30T02:00:28.892Z,1009.55
2016-04-30T02:01:28.878Z,1009.53
2016-04-30T02:02:28.850Z,1009.56
2016-04-30T02:03:28.838Z,1009.54
2016-04-30T02:04:28.825Z,1009.55
2016-04-30T02:05:28.811Z,1009.57
2016-04-30T02:06:28.783Z,1009.56
2016-04-30T02:07:28.769Z,1009.58
2016-04-30T02:08:28.741Z,1009.55
2016-04-30T02:09:28.729Z,1009.57
2016-04-30T02:10:28.715Z,1009.51
2016-04-30T02:11:28.687Z,1009.57
2016-04-30T02:12:28.690Z,1009.53
2016-04-30T02:13:28.661Z,1009.5
2016-04-30T02:14:28.632Z,1009.49
2016-04-30T02:15:28.619Z,1009.52
2016-04-30T02:16:28.590Z,1009.46
2016-04-30T02:17:28.579Z,1009.54
2016-04-30T02:18:28.768Z,1009.51
2016-04-30T02:19:28.537Z,1009.6
2016-04-30T02:20:28.523Z,1009.62
2016-04-30T02:21:28.511Z,1009.6
2016-04-30T02:22:28.482Z,1009.67
2016-04-30T02:23:28.470Z,1009.67
2016-04-30T02:24:28.456Z,1009.75
2016-04-30T02:25:28.428Z,1009.74
2016-04-30T02:26:28.758Z,1009.72
2016-04-30T02:27:28.402Z,1009.77
2016-04-30T02:28:28.373Z,1009.79
2016-04-30T02:29:28.360Z,1009.76
2016-04-30T02:30:28.348Z,1009.79
2016-04-30T02:31:28.319Z,1009.81
2016-04-30T02:32:28.306Z,1009.82
2016-04-30T02:33:28.277Z,1009.84
2016-04-30T02:34:28.764Z,1009.89
2016-04-30T02:35:28.251Z,1009.88
2016-04-30T02:36:28.222Z,1009.92
2016-04-30T02:37:28.210Z,1009.9
2016-04-30T02:38:28.182Z,1009.9
2016-04-30T02:39:28.168Z,1009.9
2016-04-30T02:40:28.155Z,1009.9
2016-04-30T02:41:28.127Z,1009.86
2016-04-30T02:42:28.770Z,1009.86
2016-04-30T02:43:28.101Z,1009.87
2016-04-30T02:44:28.073Z,1009.93
2016-04-30T02:45:28.060Z,1009.94
2016-04-30T02:46:28.046Z,1009.91
2016-04-30T02:47:28.018Z,1009.93
2016-04-30T02:48:28.004Z,1009.95
2016-04-30T02:49:27.993Z,1009.97
2016-04-30T02:50:28.057Z,1009.97
2016-04-30T02:51:27.951Z,1009.98
2016-04-30T02:52:27.922Z,1009.99
2016-04-30T02:53:27.909Z,1009.96
2016-04-30T02:54:27.895Z,1009.98
2016-04-30T02:55:27.867Z,1009.99
2016-04-30T02:56:27.871Z,1009.99
2016-04-30T02:57:27.842Z,1009.99
2016-04-30T02:58:28.017Z,1010.01
2016-04-30T02:59:27.800Z,1010.01
2016-04-30T03:00:27.771Z,1010
2016-04-30T03:01:27.758Z,1010.02
2016-04-30T03:02:27.746Z,1010.03
2016-04-30T03:03:27.717Z,1010.05
2016-04-30T03:04:27.705Z,1010.04
2016-04-30T03:05:27.691Z,1009.99
2016-04-30T03:06:28.069Z,1009.99
2016-04-30T03:07:27.650Z,1009.97
2016-04-30T03:08:27.638Z,1009.98
2016-04-30T03:09:27.608Z,1009.98
2016-04-30T03:10:27.596Z,1010.06
2016-04-30T03:11:27.566Z,1010
2016-04-30T03:12:27.554Z,1010
2016-04-30T03:13:27.541Z,1010
2016-04-30T03:14:27.528Z,1010.03
2016-04-30T03:15:27.500Z,1010.03
2016-04-30T03:16:27.487Z,1010.03
2016-04-30T03:17:27.458Z,1010.06
2016-04-30T03:18:27.445Z,1010.04
2016-04-30T03:19:27.417Z,1010.04
2016-04-30T03:20:27.403Z,1010.02
2016-04-30T03:21:27.390Z,1010.04
2016-04-30T03:22:27.378Z,1010.09
2016-04-30T03:23:27.349Z,1010.12
2016-04-30T03:24:27.336Z,1010.11
2016-04-30T03:25:27.309Z,1010.11
2016-04-30T03:26:27.295Z,1010.12
2016-04-30T03:27:27.281Z,1010.13
2016-04-30T03:28:27.253Z,1010.13
2016-04-30T03:29:27.240Z,1010.14
2016-04-30T03:30:27.212Z,1010.18
2016-04-30T03:31:27.199Z,1010.13
2016-04-30T03:32:27.235Z,1010.12
2016-04-30T03:33:27.259Z,1010.13
2016-04-30T03:34:27.300Z,1010.14
2016-04-30T03:35:27.339Z,1010.15
2016-04-30T03:36:27.364Z,1010.15
2016-04-30T03:37:27.373Z,1010.16
2016-04-30T03:38:27.378Z,1010.17
2016-04-30T03:39:27.369Z,1010.16
2016-04-30T03:40:27.374Z,1010.15
2016-04-30T03:41:27.365Z,1010.15
2016-04-30T03:42:27.359Z,1010.2
2016-04-30T03:43:27.354Z,1010.16
2016-04-30T03:44:27.331Z,1010.2
2016-04-30T03:45:27.326Z,1010.17
2016-04-30T03:46:27.304Z,1010.22
2016-04-30T03:47:27.294Z,1010.18
2016-04-30T03:48:27.283Z,1010.18
2016-04-30T03:49:27.258Z,1010.18
2016-04-30T03:50:27.247Z,1010.22
2016-04-30T03:51:27.222Z,1010.16
2016-04-30T03:52:27.210Z,1010.19
2016-04-30T03:53:27.198Z,1010.19
2016-04-30T03:54:27.171Z,1010.24
2016-04-30T03:55:27.158Z,1010.22
2016-04-30T03:56:27.161Z,1010.24
2016-04-30T03:57:27.117Z,1010.27
2016-04-30T03:58:27.105Z,1010.22
2016-04-30T03:59:27.092Z,1010.22
2016-04-30T04:00:27.065Z,1010.24
2016-04-30T04:01:27.052Z,1010.27
2016-04-30T04:02:27.039Z,1010.29
2016-04-30T04:03:27.011Z,1010.28
2016-04-30T04:04:26.997Z,1010.31
2016-04-30T04:05:26.968Z,1010.33
2016-04-30T04:06:26.956Z,1010.35
2016-04-30T04:07:26.942Z,1010.35
2016-04-30T04:08:26.915Z,1010.35
2016-04-30T04:09:26.902Z,1010.32
2016-04-30T04:10:26.888Z,1010.32
2016-04-30T04:11:26.876Z,1010.37
2016-04-30T04:12:26.847Z,1010.34
2016-04-30T04:13:26.850Z,1010.33
2016-04-30T04:14:26.806Z,1010.27
2016-04-30T04:15:26.793Z,1010.34
2016-04-30T04:16:26.779Z,1010.3
2016-04-30T04:17:26.767Z,1010.34
2016-04-30T04:18:26.738Z,1010.35
2016-04-30T04:19:26.787Z,1010.31
2016-04-30T04:20:26.712Z,1010.4
2016-04-30T04:21:26.700Z,1010.38
2016-04-30T04:22:26.670Z,1010.4
2016-04-30T04:23:26.642Z,1010.36
2016-04-30T04:24:26.644Z,1010.36
2016-04-30T04:25:26.616Z,1010.39
2016-04-30T04:26:26.603Z,1010.33
2016-04-30T04:27:26.591Z,1010.38
2016-04-30T04:28:26.562Z,1010.35
2016-04-30T04:29:26.549Z,1010.44
2016-04-30T04:30:26.536Z,1010.43
2016-04-30T04:31:26.507Z,1010.47
2016-04-30T04:32:26.494Z,1010.42
2016-04-30T04:33:26.465Z,1010.42
2016-04-30T04:34:26.672Z,1010.43
2016-04-30T04:35:26.440Z,1010.4
2016-04-30T04:36:26.412Z,1010.44
2016-04-30T04:37:26.399Z,1010.47
2016-04-30T04:38:26.385Z,1010.43
2016-04-30T04:39:26.357Z,1010.45
2016-04-30T04:40:26.344Z,1010.48
2016-04-30T04:41:26.331Z,1010.47
2016-04-30T04:42:26.300Z,1010.52
2016-04-30T04:43:26.287Z,1010.53
2016-04-30T04:44:26.274Z,1010.57
2016-04-30T04:45:26.245Z,1010.56
2016-04-30T04:46:26.232Z,1010.57
2016-04-30T04:47:26.220Z,1010.61
2016-04-30T04:48:26.207Z,1010.65
2016-04-30T04:49:26.178Z,1010.66
2016-04-30T04:50:26.165Z,1010.64
2016-04-30T04:51:26.152Z,1010.63
2016-04-30T04:52:26.123Z,1010.64
2016-04-30T04:53:26.110Z,1010.63
2016-04-30T04:54:26.083Z,1010.66
2016-04-30T04:55:26.069Z,1010.69
2016-04-30T04:56:26.056Z,1010.66
2016-04-30T04:57:26.027Z,1010.71
2016-04-30T04:58:26.014Z,1010.68
2016-04-30T04:59:26.002Z,1010.73
2016-04-30T05:00:25.989Z,1010.74
2016-04-30T05:01:25.961Z,1010.71
2016-04-30T05:02:25.947Z,1010.76
2016-04-30T05:03:25.919Z,1010.75
2016-04-30T05:04:25.905Z,1010.81
2016-04-30T05:05:25.893Z,1010.82
2016-04-30T05:06:25.865Z,1010.84
2016-04-30T05:07:25.852Z,1010.84
2016-04-30T05:08:25.838Z,1010.85
2016-04-30T05:09:25.826Z,1010.91
2016-04-30T05:10:25.796Z,1010.88
2016-04-30T05:11:25.784Z,1010.88
2016-04-30T05:12:25.756Z,1010.91
2016-04-30T05:13:25.743Z,1010.94
2016-04-30T05:14:25.729Z,1010.95
2016-04-30T05:15:25.717Z,1011
2016-04-30T05:16:25.688Z,1011
2016-04-30T05:17:25.675Z,1011.04
2016-04-30T05:18:25.662Z,1010.98
2016-04-30T05:19:25.634Z,1011.04
2016-04-30T05:20:25.621Z,1011
2016-04-30T05:21:25.608Z,1011.01
2016-04-30T05:22:25.595Z,1011.03
2016-04-30T05:23:25.566Z,1011.03
2016-04-30T05:24:25.553Z,1011.06
2016-04-30T05:25:25.525Z,1011.02
2016-04-30T05:26:25.512Z,1011.1
2016-04-30T05:27:25.499Z,1011.06
2016-04-30T05:28:25.470Z,1011.1
2016-04-30T05:29:25.458Z,1011.11
2016-04-30T05:30:25.444Z,1011.1
2016-04-30T05:31:25.432Z,1011.14
2016-04-30T05:32:25.419Z,1011.08
2016-04-30T05:33:25.390Z,1011.07
2016-04-30T05:34:25.502Z,1011.12
2016-04-30T05:35:25.349Z,1011.11
2016-04-30T05:36:25.335Z,1011.16
2016-04-30T05:37:25.370Z,1011.17
2016-04-30T05:38:25.310Z,1011.15
2016-04-30T05:39:25.282Z,1011.21
2016-04-30T05:40:25.268Z,1011.21
2016-04-30T05:41:25.240Z,1011.22
2016-04-30T05:42:25.226Z,1011.19
2016-04-30T05:43:25.214Z,1011.22
2016-04-30T05:44:25.185Z,1011.24
2016-04-30T05:45:25.376Z,1011.27
2016-04-30T05:46:25.160Z,1011.24
2016-04-30T05:47:25.146Z,1011.24
2016-04-30T05:48:25.118Z,1011.27
2016-04-30T05:49:25.106Z,1011.24
2016-04-30T05:50:25.092Z,1011.28
2016-04-30T05:51:25.064Z,1011.29
2016-04-30T05:52:25.050Z,1011.3
2016-04-30T05:53:25.491Z,1011.31
2016-04-30T05:54:25.025Z,1011.28
2016-04-30T05:55:24.996Z,1011.33
2016-04-30T05:56:24.983Z,1011.31
2016-04-30T05:57:24.955Z,1011.3
2016-04-30T05:58:24.942Z,1011.35
2016-04-30T05:59:24.929Z,1011.34
2016-04-30T06:00:24.901Z,1011.32
2016-04-30T06:01:25.387Z,1011.34
2016-04-30T06:02:24.874Z,1011.35
2016-04-30T06:03:24.847Z,1011.36
2016-04-30T06:04:24.833Z,1011.37
2016-04-30T06:05:24.820Z,1011.36
2016-04-30T06:06:24.807Z,1011.34
2016-04-30T06:07:24.794Z,1011.37
2016-04-30T06:08:24.766Z,1011.36
2016-04-30T06:09:25.393Z,1011.39
2016-04-30T06:10:24.724Z,1011.4
2016-04-30T06:11:24.711Z,1011.41
2016-04-30T06:12:24.683Z,1011.37
2016-04-30T06:13:24.670Z,1011.43
2016-04-30T06:14:24.657Z,1011.49
2016-04-30T06:15:24.643Z,1011.46
2016-04-30T06:16:24.615Z,1011.43
2016-04-30T06:17:24.696Z,1011.42
2016-04-30T06:18:24.589Z,1011.4
2016-04-30T06:19:24.623Z,1011.45
2016-04-30T06:20:24.548Z,1011.47
2016-04-30T06:21:24.535Z,1011.47
2016-04-30T06:22:24.506Z,1011.49
2016-04-30T06:23:24.503Z,1011.48
2016-04-30T06:24:24.475Z,1011.49
2016-04-30T06:25:25.461Z,1011.5
2016-04-30T06:26:24.449Z,1011.53
2016-04-30T06:27:24.420Z,1011.53
2016-04-30T06:28:24.408Z,1011.52
2016-04-30T06:29:24.394Z,1011.49
2016-04-30T06:30:24.366Z,1011.48
2016-04-30T06:31:24.353Z,1011.53
2016-04-30T06:32:24.341Z,1011.49
2016-04-30T06:33:24.718Z,1011.53
2016-04-30T06:34:24.908Z,1011.53
2016-04-30T06:35:24.285Z,1011.5
2016-04-30T06:36:24.273Z,1011.52
2016-04-30T06:37:24.244Z,1011.51
2016-04-30T06:38:24.231Z,1011.53
2016-04-30T06:39:24.218Z,1011.55
2016-04-30T06:40:24.205Z,1011.55
2016-04-30T06:41:24.177Z,1011.55
2016-04-30T06:42:24.164Z,1011.56
2016-04-30T06:43:24.135Z,1011.57
2016-04-30T06:44:24.122Z,1011.61
2016-04-30T06:45:24.109Z,1011.56
2016-04-30T06:46:24.081Z,1011.56
2016-04-30T06:47:24.067Z,1011.57
2016-04-30T06:48:24.055Z,1011.58
2016-04-30T06:49:24.026Z,1011.59
2016-04-30T06:50:24.014Z,1011.62
2016-04-30T06:51:24.001Z,1011.58
2016-04-30T06:52:23.987Z,1011.63
2016-04-30T06:53:23.958Z,1011.59
2016-04-30T06:54:23.947Z,1011.58
2016-04-30T06:55:23.918Z,1011.61
2016-04-30T06:56:23.905Z,1011.61
2016-04-30T06:57:23.891Z,1011.62
2016-04-30T06:58:23.863Z,1011.61
2016-04-30T06:59:23.850Z,1011.65
2016-04-30T07:00:23.838Z,1011.63
2016-04-30T07:01:23.825Z,1011.65
2016-04-30T07:02:23.811Z,1011.63
2016-04-30T07:03:23.783Z,1011.66
2016-04-30T07:04:23.770Z,1011.67
2016-04-30T07:05:23.741Z,1011.65
2016-04-30T07:06:23.728Z,1011.63
2016-04-30T07:07:23.716Z,1011.67
2016-04-30T07:08:23.702Z,1011.61
2016-04-30T07:09:23.674Z,1011.72
2016-04-30T07:10:23.661Z,1011.7
2016-04-30T07:11:23.632Z,1011.69
2016-04-30T07:12:23.620Z,1011.67
2016-04-30T07:13:23.607Z,1011.71
2016-04-30T07:14:23.578Z,1011.7
2016-04-30T07:15:23.565Z,1011.71
2016-04-30T07:16:23.552Z,1011.7
2016-04-30T07:17:23.540Z,1011.73
2016-04-30T07:18:23.511Z,1011.72
2016-04-30T07:19:23.498Z,1011.73
2016-04-30T07:20:23.484Z,1011.7
2016-04-30T07:21:23.456Z,1011.73
2016-04-30T07:22:23.443Z,1011.74
2016-04-30T07:23:23.431Z,1011.74
2016-04-30T07:24:23.402Z,1011.71
2016-04-30T07:25:23.389Z,1011.76
2016-04-30T07:26:23.376Z,1011.79
2016-04-30T07:27:23.363Z,1011.79
2016-04-30T07:28:23.334Z,1011.76
2016-04-30T07:29:23.322Z,1011.76
2016-04-30T07:30:23.294Z,1011.72
2016-04-30T07:31:23.280Z,1011.72
2016-04-30T07:32:23.267Z,1011.79
2016-04-30T07:33:23.254Z,1011.73
2016-04-30T07:34:23.241Z,1011.73
2016-04-30T07:35:23.213Z,1011.8
2016-04-30T07:36:23.200Z,1011.76
2016-04-30T07:37:23.187Z,1011.74
2016-04-30T07:38:23.158Z,1011.75
2016-04-30T07:39:23.146Z,1011.76
2016-04-30T07:40:23.116Z,1011.77
2016-04-30T07:41:23.104Z,1011.78
2016-04-30T07:42:23.091Z,1011.77
2016-04-30T07:43:23.078Z,1011.76
2016-04-30T07:44:23.049Z,1011.79
2016-04-30T07:45:23.037Z,1011.76
2016-04-30T07:46:23.023Z,1011.78
2016-04-30T07:47:22.995Z,1011.82
2016-04-30T07:48:22.982Z,1011.79
2016-04-30T07:49:22.970Z,1011.82
2016-04-30T07:50:22.940Z,1011.81
2016-04-30T07:51:22.928Z,1011.81
2016-04-30T07:52:22.914Z,1011.88
2016-04-30T07:53:22.886Z,1011.86
2016-04-30T07:54:22.873Z,1011.84
2016-04-30T07:55:22.861Z,1011.86
2016-04-30T07:56:22.831Z,1011.85
2016-04-30T07:57:22.819Z,1011.86
2016-04-30T07:58:22.806Z,1011.84
2016-04-30T07:59:22.777Z,1011.85
2016-04-30T08:00:22.764Z,1011.89
2016-04-30T08:01:22.752Z,1011.9
2016-04-30T08:02:22.738Z,1011.9
2016-04-30T08:03:22.710Z,1011.91
2016-04-30T08:04:22.697Z,1011.92
2016-04-30T08:05:22.683Z,1011.92
2016-04-30T08:06:22.655Z,1011.94
2016-04-30T08:07:22.642Z,1011.96
2016-04-30T08:08:22.630Z,1011.97
2016-04-30T08:09:22.617Z,1012
2016-04-30T08:10:22.588Z,1012.01
2016-04-30T08:11:22.574Z,1011.99
2016-04-30T08:12:22.562Z,1012
2016-04-30T08:13:22.534Z,1011.96
2016-04-30T08:14:22.520Z,1011.95
2016-04-30T08:15:22.507Z,1011.93
2016-04-30T08:16:22.479Z,1011.91
2016-04-30T08:17:22.466Z,1011.9
2016-04-30T08:18:22.453Z,1011.93
2016-04-30T08:19:22.425Z,1011.93
2016-04-30T08:20:22.412Z,1011.94
2016-04-30T08:21:22.398Z,1011.92
2016-04-30T08:22:22.370Z,1011.93
2016-04-30T08:23:22.357Z,1011.96
2016-04-30T08:24:22.345Z,1011.97
2016-04-30T08:25:22.317Z,1012.01
2016-04-30T08:26:22.303Z,1011.99
2016-04-30T08:27:22.289Z,1011.99
2016-04-30T08:28:22.278Z,1012.03
2016-04-30T08:29:22.248Z,1012.03
2016-04-30T08:30:22.235Z,1012.02
2016-04-30T08:31:22.223Z,1012.11
2016-04-30T08:32:22.194Z,1012.01
2016-04-30T08:33:22.181Z,1012.05
2016-04-30T08:34:22.168Z,1012.09
2016-04-30T08:35:22.139Z,1012.05
2016-04-30T08:36:22.126Z,1012.11
2016-04-30T08:37:22.114Z,1012.06
2016-04-30T08:38:22.101Z,1012.12
2016-04-30T08:39:22.071Z,1012.07
2016-04-30T08:40:22.059Z,1012.08
2016-04-30T08:41:22.046Z,1012.13
2016-04-30T08:42:22.018Z,1012.08
2016-04-30T08:43:22.004Z,1012.07
2016-04-30T08:44:21.992Z,1012.15
2016-04-30T08:45:21.963Z,1012.11
2016-04-30T08:46:21.951Z,1012.17
2016-04-30T08:47:21.937Z,1012.17
2016-04-30T08:48:21.924Z,1012.16
2016-04-30T08:49:21.896Z,1012.15
2016-04-30T08:50:21.884Z,1012.14
2016-04-30T08:51:21.854Z,1012.18
2016-04-30T08:52:21.842Z,1012.14
2016-04-30T08:53:21.829Z,1012.17
2016-04-30T08:54:21.815Z,1012.17
2016-04-30T08:55:21.786Z,1012.21
2016-04-30T08:56:21.774Z,1012.22
2016-04-30T08:57:21.761Z,1012.24
2016-04-30T08:58:21.733Z,1012.27
2016-04-30T08:59:21.719Z,1012.29
2016-04-30T09:00:21.706Z,1012.32
2016-04-30T09:01:21.678Z,1012.23
2016-04-30T09:02:21.666Z,1012.22
2016-04-30T09:03:21.652Z,1012.2
2016-04-30T09:04:21.639Z,1012.23
2016-04-30T09:05:21.611Z,1012.23
2016-04-30T09:06:21.598Z,1012.2
2016-04-30T09:07:21.585Z,1012.2
2016-04-30T09:08:21.557Z,1012.21
2016-04-30T09:09:21.544Z,1012.18
2016-04-30T09:10:21.530Z,1012.21
2016-04-30T09:11:21.517Z,1012.25
2016-04-30T09:12:21.598Z,1012.28
2016-04-30T09:13:21.476Z,1012.24
2016-04-30T09:14:21.463Z,1012.28
2016-04-30T09:15:21.434Z,1012.3
2016-04-30T09:16:21.421Z,1012.33
2016-04-30T09:17:21.393Z,1012.3
2016-04-30T09:18:21.396Z,1012.26
2016-04-30T09:19:21.367Z,1012.28
2016-04-30T09:20:21.604Z,1012.26
2016-04-30T09:21:21.342Z,1012.23
2016-04-30T09:22:21.329Z,1012.28
2016-04-30T09:23:21.300Z,1012.21
2016-04-30T09:24:21.287Z,1012.29
2016-04-30T09:25:21.821Z,1012.28
2016-04-30T09:26:21.246Z,1012.22
2016-04-30T09:27:21.232Z,1012.24
2016-04-30T09:28:21.610Z,1012.23
2016-04-30T09:29:21.191Z,1012.26
2016-04-30T09:30:21.178Z,1012.27
2016-04-30T09:31:21.164Z,1012.27
2016-04-30T09:32:21.152Z,1012.22
2016-04-30T09:33:21.139Z,1012.25
2016-04-30T09:34:21.111Z,1012.24
2016-04-30T09:35:21.097Z,1012.24
2016-04-30T09:36:21.679Z,1012.23
2016-04-30T09:37:21.056Z,1012.22
2016-04-30T09:38:21.043Z,1012.26
2016-04-30T09:39:21.030Z,1012.23
2016-04-30T09:40:21.018Z,1012.29
2016-04-30T09:41:20.989Z,1012.35
2016-04-30T09:42:20.976Z,1012.33
2016-04-30T09:43:20.963Z,1012.35
2016-04-30T09:44:21.653Z,1012.35
2016-04-30T09:45:20.922Z,1012.35
2016-04-30T09:46:20.909Z,1012.35
2016-04-30T09:47:20.895Z,1012.39
2016-04-30T09:48:20.868Z,1012.36
2016-04-30T09:49:21.823Z,1012.4
2016-04-30T09:50:20.840Z,1012.43
2016-04-30T09:51:20.829Z,1012.41
2016-04-30T09:52:20.909Z,1012.45
2016-04-30T09:53:20.787Z,1012.41
2016-04-30T09:54:20.774Z,1012.46
2016-04-30T09:55:20.761Z,1012.41
2016-04-30T09:56:20.748Z,1012.43
2016-04-30T09:57:20.719Z,1012.45
2016-04-30T09:58:20.706Z,1012.42
2016-04-30T09:59:20.678Z,1012.46
2016-04-30T10:00:20.915Z,1012.45
2016-04-30T10:01:20.652Z,1012.47
2016-04-30T10:02:20.639Z,1012.46
2016-04-30T10:03:20.626Z,1012.46
2016-04-30T10:04:20.598Z,1012.49
2016-04-30T10:05:20.585Z,1012.49
2016-04-30T10:06:20.572Z,1012.49
2016-04-30T10:07:20.543Z,1012.48
2016-04-30T10:08:20.936Z,1012.52
2016-04-30T10:09:20.517Z,1012.5
2016-04-30T10:10:20.504Z,1012.52
2016-04-30T10:11:20.491Z,1012.54
2016-04-30T10:12:20.463Z,1012.53
2016-04-30T10:13:20.449Z,1012.57
2016-04-30T10:14:20.422Z,1012.58
2016-04-30T10:15:20.408Z,1012.54
2016-04-30T10:16:20.396Z,1012.59
2016-04-30T10:17:20.367Z,1012.56
2016-04-30T10:18:20.370Z,1012.59
2016-04-30T10:19:20.341Z,1012.55
2016-04-30T10:20:20.328Z,1012.55
2016-04-30T10:21:20.316Z,1012.61
2016-04-30T10:22:20.287Z,1012.59
2016-04-30T10:23:20.274Z,1012.57
2016-04-30T10:24:20.262Z,1012.61
2016-04-30T10:25:20.232Z,1012.6
2016-04-30T10:26:20.219Z,1012.66
2016-04-30T10:27:20.207Z,1012.62
2016-04-30T10:28:20.178Z,1012.62
2016-04-30T10:29:20.165Z,1012.6
2016-04-30T10:30:20.153Z,1012.62
2016-04-30T10:31:20.123Z,1012.6
2016-04-30T10:32:20.111Z,1012.64
2016-04-30T10:33:20.114Z,1012.64
2016-04-30T10:34:20.366Z,1012.62
2016-04-30T10:35:20.056Z,1012.61
2016-04-30T10:36:20.043Z,1012.62
2016-04-30T10:37:20.031Z,1012.61
2016-04-30T10:38:20.017Z,1012.66
2016-04-30T10:39:19.989Z,1012.65
2016-04-30T10:40:19.976Z,1012.61
2016-04-30T10:41:19.963Z,1012.58
2016-04-30T10:42:19.950Z,1012.64
2016-04-30T10:43:19.922Z,1012.62
2016-04-30T10:44:19.908Z,1012.63
2016-04-30T10:45:19.896Z,1012.62
2016-04-30T10:46:19.883Z,1012.68
2016-04-30T10:47:19.854Z,1012.64
2016-04-30T10:48:19.841Z,1012.63
2016-04-30T10:49:20.110Z,1012.65
2016-04-30T10:50:19.799Z,1012.64
2016-04-30T10:51:19.787Z,1012.65
2016-04-30T10:52:19.757Z,1012.63
2016-04-30T10:53:19.761Z,1012.63
2016-04-30T10:54:19.733Z,1012.65
2016-04-30T10:55:19.720Z,1012.63
2016-04-30T10:56:19.707Z,1012.63
2016-04-30T10:57:19.678Z,1012.64
2016-04-30T10:58:19.665Z,1012.63
2016-04-30T10:59:19.637Z,1012.69
2016-04-30T11:00:19.623Z,1012.67
2016-04-30T11:01:19.611Z,1012.68
2016-04-30T11:02:19.597Z,1012.7
2016-04-30T11:03:19.570Z,1012.68
2016-04-30T11:04:19.556Z,1012.68
2016-04-30T11:05:19.542Z,1012.64
2016-04-30T11:06:19.531Z,1012.71
2016-04-30T11:07:19.502Z,1012.69
2016-04-30T11:08:19.488Z,1012.69
2016-04-30T11:09:19.476Z,1012.72
2016-04-30T11:10:19.464Z,1012.73
2016-04-30T11:11:19.434Z,1012.73
2016-04-30T11:12:19.421Z,1012.71
2016-04-30T11:13:19.408Z,1012.73
2016-04-30T11:14:19.386Z,1012.77
2016-04-30T11:15:19.369Z,1012.72
2016-04-30T11:16:19.345Z,1012.77
2016-04-30T11:17:19.327Z,1012.81
2016-04-30T11:18:19.315Z,1012.76
2016-04-30T11:19:20.083Z,1012.83
2016-04-30T11:20:19.274Z,1012.81
2016-04-30T11:21:19.260Z,1012.79
2016-04-30T11:22:19.248Z,1012.81
2016-04-30T11:23:19.218Z,1012.78
2016-04-30T11:24:19.206Z,1012.81
2016-04-30T11:25:19.177Z,1012.81
2016-04-30T11:26:19.164Z,1012.76
2016-04-30T11:27:19.151Z,1012.84
2016-04-30T11:28:19.139Z,1012.81
2016-04-30T11:29:19.109Z,1012.83
2016-04-30T11:30:19.097Z,1012.83
2016-04-30T11:31:19.100Z,1012.87
2016-04-30T11:32:19.055Z,1012.83
2016-04-30T11:33:19.042Z,1012.82
2016-04-30T11:34:19.030Z,1012.82
2016-04-30T11:35:19.017Z,1012.85
2016-04-30T11:36:18.989Z,1012.82
2016-04-30T11:37:18.975Z,1012.82
2016-04-30T11:38:18.961Z,1012.81
2016-04-30T11:39:18.949Z,1012.79
2016-04-30T11:40:18.921Z,1012.79
2016-04-30T11:41:18.907Z,1012.81
2016-04-30T11:42:18.895Z,1012.81
2016-04-30T11:43:18.866Z,1012.78
2016-04-30T11:44:18.853Z,1012.78
2016-04-30T11:45:18.841Z,1012.77
2016-04-30T11:46:18.813Z,1012.81
2016-04-30T11:47:18.799Z,1012.79
2016-04-30T11:48:18.785Z,1012.8
2016-04-30T11:49:19.335Z,1012.84
2016-04-30T11:50:18.744Z,1012.86
2016-04-30T11:51:18.732Z,1012.86
2016-04-30T11:52:18.718Z,1012.86
2016-04-30T11:53:18.690Z,1012.87
2016-04-30T11:54:18.692Z,1012.87
2016-04-30T11:55:18.648Z,1012.83
2016-04-30T11:56:18.635Z,1012.85
2016-04-30T11:57:18.623Z,1012.86
2016-04-30T11:58:18.609Z,1012.87
2016-04-30T11:59:18.784Z,1012.83
2016-04-30T12:00:18.568Z,1012.83
2016-04-30T12:01:18.556Z,1012.89
2016-04-30T12:02:18.543Z,1012.83
2016-04-30T12:03:18.513Z,1012.87
2016-04-30T12:04:19.219Z,1012.91
2016-04-30T12:05:18.489Z,1012.88
2016-04-30T12:06:18.459Z,1012.91
2016-04-30T12:07:18.790Z,1012.86
2016-04-30T12:08:18.434Z,1012.86